createdAt,value
2023-12-23T00:02:24.527Z,3.10
2023-12-23T00:04:52.290Z,3.10
2023-12-23T00:07:20.378Z,3.00
2023-12-23T00:09:48.624Z,3.00
2023-12-23T00:12:16.330Z,3.00
2023-12-23T00:14:44.213Z,3.10
2023-12-23T00:17:12.980Z,3.10
2023-12-23T00:19:41.014Z,3.10
2023-12-23T00:22:08.810Z,3.10
2023-12-23T00:24:36.525Z,3.10
2023-12-23T00:27:04.596Z,3.20
2023-12-23T00:29:32.618Z,3.40
2023-12-23T00:32:00.442Z,3.30
2023-12-23T00:34:29.608Z,3.30
2023-12-23T00:36:57.953Z,3.40
2023-12-23T00:39:25.720Z,3.30
2023-12-23T00:41:53.416Z,3.30
2023-12-23T00:44:21.377Z,3.30
2023-12-23T00:46:49.218Z,3.20
2023-12-23T00:49:16.966Z,3.00
2023-12-23T00:51:44.747Z,3.10
2023-12-23T00:54:12.441Z,3.10
2023-12-23T00:56:40.183Z,3.10
2023-12-23T00:59:08.451Z,3.10
2023-12-23T01:01:36.211Z,3.20
2023-12-23T01:04:04.199Z,3.10
2023-12-23T01:06:32.039Z,3.20
2023-12-23T01:09:00.383Z,3.20
2023-12-23T01:11:28.073Z,3.10
2023-12-23T01:13:55.861Z,3.20
2023-12-23T01:16:23.673Z,3.20
2023-12-23T01:18:51.465Z,3.20
2023-12-23T01:21:21.605Z,3.20
2023-12-23T01:23:49.430Z,3.30
2023-12-23T01:26:17.456Z,3.20
2023-12-23T01:28:45.228Z,3.50
2023-12-23T01:31:13.376Z,3.50
2023-12-23T01:33:41.355Z,3.40
2023-12-23T01:36:09.193Z,3.30
2023-12-23T01:38:37.803Z,3.40
2023-12-23T01:41:05.843Z,3.30
2023-12-23T01:43:33.498Z,3.30
2023-12-23T01:46:02.861Z,3.30
2023-12-23T01:48:35.945Z,3.40
2023-12-23T01:51:04.769Z,3.40
2023-12-23T01:53:33.587Z,3.40
2023-12-23T01:56:01.917Z,3.30
2023-12-23T01:58:29.857Z,3.30
2023-12-23T02:00:57.906Z,3.40
2023-12-23T02:03:27.315Z,3.30
2023-12-23T02:05:57.899Z,3.30
2023-12-23T02:08:25.977Z,3.20
2023-12-23T02:11:06.909Z,3.40
2023-12-23T02:13:52.544Z,3.30
2023-12-23T02:16:20.320Z,3.40
2023-12-23T02:18:48.485Z,3.30
2023-12-23T02:21:16.356Z,3.30
2023-12-23T02:23:44.116Z,3.30
2023-12-23T02:26:13.933Z,3.30
2023-12-23T02:28:42.807Z,3.30
2023-12-23T02:31:11.556Z,3.30
2023-12-23T02:33:39.535Z,3.30
2023-12-23T02:36:07.622Z,3.20
2023-12-23T02:38:35.557Z,3.30
2023-12-23T02:41:03.358Z,3.30
2023-12-23T02:43:31.311Z,3.30
2023-12-23T02:45:59.026Z,3.40
2023-12-23T02:48:26.908Z,3.50
2023-12-23T02:50:54.647Z,3.40
2023-12-23T02:53:22.602Z,3.30
2023-12-23T02:55:51.615Z,3.30
2023-12-23T02:58:19.438Z,3.40
2023-12-23T03:00:47.192Z,3.30
2023-12-23T03:03:15.105Z,3.30
2023-12-23T03:05:43.042Z,3.30
2023-12-23T03:08:12.820Z,3.40
2023-12-23T03:10:40.552Z,3.30
2023-12-23T03:13:09.211Z,3.50
2023-12-23T03:15:36.924Z,3.40
2023-12-23T03:18:04.962Z,3.40
2023-12-23T03:20:33.310Z,3.40
2023-12-23T03:23:01.185Z,3.40
2023-12-23T03:25:30.382Z,3.30
2023-12-23T03:27:58.144Z,3.30
2023-12-23T03:30:25.886Z,3.20
2023-12-23T03:32:55.151Z,3.20
2023-12-23T03:35:23.376Z,3.40
2023-12-23T03:37:51.222Z,3.40
2023-12-23T03:40:18.894Z,3.30
2023-12-23T03:42:46.778Z,3.40
2023-12-23T03:45:14.844Z,3.40
2023-12-23T03:47:42.687Z,3.40
2023-12-23T03:50:11.636Z,3.50
2023-12-23T03:52:39.724Z,3.40
2023-12-23T03:55:08.724Z,3.30
2023-12-23T03:57:36.480Z,3.20
2023-12-23T04:00:05.830Z,3.30
2023-12-23T04:02:41.622Z,3.30
2023-12-23T04:05:09.409Z,3.30
2023-12-23T04:07:37.314Z,3.20
2023-12-23T04:10:05.762Z,3.20
2023-12-23T04:12:33.761Z,3.20
2023-12-23T04:15:03.810Z,3.20
2023-12-23T04:17:31.593Z,3.20
2023-12-23T04:19:59.503Z,3.20
2023-12-23T04:22:27.770Z,3.30
2023-12-23T04:24:55.566Z,3.30
2023-12-23T04:27:23.359Z,3.30
2023-12-23T04:29:52.098Z,3.40
2023-12-23T04:32:20.591Z,3.50
2023-12-23T04:34:48.355Z,3.50
2023-12-23T04:37:16.193Z,3.50
2023-12-23T04:39:45.209Z,3.50
2023-12-23T04:42:13.033Z,3.40
2023-12-23T04:44:41.272Z,3.50
2023-12-23T04:47:09.142Z,3.40
2023-12-23T04:49:36.859Z,3.40
2023-12-23T04:52:04.932Z,3.30
2023-12-23T04:54:33.799Z,3.20
2023-12-23T04:57:01.482Z,3.10
2023-12-23T04:59:30.338Z,3.20
2023-12-23T05:02:01.045Z,3.20
2023-12-23T05:04:28.856Z,3.30
2023-12-23T05:06:58.876Z,3.20
2023-12-23T05:09:26.986Z,3.20
2023-12-23T05:11:54.828Z,3.20
2023-12-23T05:14:22.663Z,3.10
2023-12-23T05:16:50.525Z,3.10
2023-12-23T05:19:18.518Z,3.30
2023-12-23T05:21:46.377Z,3.40
2023-12-23T05:24:14.099Z,3.40
2023-12-23T05:26:41.912Z,3.20
2023-12-23T05:29:09.675Z,3.10
2023-12-23T05:31:37.609Z,3.00
2023-12-23T05:34:05.366Z,3.00
2023-12-23T05:36:33.272Z,3.00
2023-12-23T05:39:01.076Z,3.20
2023-12-23T05:41:28.779Z,3.20
2023-12-23T05:43:56.539Z,3.10
2023-12-23T05:46:24.336Z,3.10
2023-12-23T05:48:52.150Z,3.00
2023-12-23T05:51:19.944Z,3.00
2023-12-23T05:53:47.823Z,3.00
2023-12-23T05:56:15.623Z,2.90
2023-12-23T05:58:43.425Z,2.90
2023-12-23T06:01:11.492Z,2.90
2023-12-23T06:03:39.248Z,2.90
2023-12-23T06:06:07.116Z,3.00
2023-12-23T06:08:34.876Z,3.00
2023-12-23T06:11:05.768Z,2.90
2023-12-23T06:13:33.775Z,3.00
2023-12-23T06:16:08.173Z,3.10
2023-12-23T06:18:35.983Z,3.00
2023-12-23T06:21:03.944Z,3.00
2023-12-23T06:23:31.825Z,3.00
2023-12-23T06:25:59.752Z,3.00
2023-12-23T06:28:27.477Z,3.00
2023-12-23T06:30:56.540Z,2.90
2023-12-23T06:33:24.554Z,2.90
2023-12-23T06:35:52.440Z,2.90
2023-12-23T06:38:20.695Z,2.90
2023-12-23T06:40:48.726Z,2.90
2023-12-23T06:43:44.313Z,2.90
2023-12-23T06:46:04.431Z,2.90
2023-12-23T06:48:34.553Z,2.90
2023-12-23T06:51:03.062Z,2.80
2023-12-23T06:53:30.900Z,2.80
2023-12-23T06:55:58.800Z,2.80
2023-12-23T06:58:28.241Z,2.80
2023-12-23T07:00:55.959Z,2.80
2023-12-23T07:03:24.116Z,2.80
2023-12-23T07:05:52.029Z,2.80
2023-12-23T07:08:20.200Z,2.80
2023-12-23T07:10:48.046Z,2.80
2023-12-23T07:13:15.751Z,2.80
2023-12-23T07:15:43.815Z,2.70
2023-12-23T07:18:31.070Z,2.80
2023-12-23T07:21:00.425Z,2.90
2023-12-23T07:23:28.200Z,2.90
2023-12-23T07:25:55.946Z,2.90
2023-12-23T07:28:24.350Z,2.90
2023-12-23T07:30:52.801Z,2.90
2023-12-23T07:33:20.686Z,2.90
2023-12-23T07:35:49.863Z,2.90
2023-12-23T07:38:18.535Z,3.00
2023-12-23T07:40:46.648Z,3.10
2023-12-23T07:43:14.452Z,3.10
2023-12-23T07:45:44.064Z,3.10
2023-12-23T07:48:11.859Z,3.10
2023-12-23T07:50:39.873Z,3.10
2023-12-23T07:53:07.694Z,3.10
2023-12-23T07:55:35.813Z,3.20
2023-12-23T07:58:03.574Z,3.20
2023-12-23T08:00:31.364Z,3.20
2023-12-23T08:02:59.062Z,3.30
2023-12-23T08:05:27.004Z,3.40
2023-12-23T08:07:55.341Z,3.50
2023-12-23T08:10:23.207Z,3.50
2023-12-23T08:12:51.215Z,3.40
2023-12-23T08:15:19.590Z,3.40
2023-12-23T08:17:51.148Z,3.40
2023-12-23T08:20:19.119Z,3.50
2023-12-23T08:22:47.134Z,3.50
2023-12-23T08:25:15.107Z,3.50
2023-12-23T08:27:42.844Z,3.50
2023-12-23T08:30:11.442Z,3.60
2023-12-23T08:32:39.312Z,3.60
2023-12-23T08:35:09.858Z,3.60
2023-12-23T08:37:37.619Z,3.60
2023-12-23T08:40:06.049Z,3.60
2023-12-23T08:42:33.762Z,3.60
2023-12-23T08:45:01.497Z,3.50
2023-12-23T08:47:29.466Z,3.60
2023-12-23T08:49:57.290Z,3.60
2023-12-23T08:52:25.338Z,3.60
2023-12-23T08:54:53.007Z,3.60
2023-12-23T08:57:20.680Z,3.60
2023-12-23T08:59:48.349Z,3.60
2023-12-23T09:02:16.466Z,3.60
2023-12-23T09:04:44.288Z,3.60
2023-12-23T09:07:13.452Z,3.60
2023-12-23T09:09:42.115Z,3.70
2023-12-23T09:12:10.173Z,3.60
2023-12-23T09:14:39.629Z,3.70
2023-12-23T09:17:10.299Z,3.70
2023-12-23T09:19:38.094Z,3.60
2023-12-23T09:22:05.990Z,3.60
2023-12-23T09:24:33.705Z,3.60
2023-12-23T09:27:02.439Z,3.60
2023-12-23T09:29:30.294Z,3.60
2023-12-23T09:31:58.405Z,3.70
2023-12-23T09:34:26.155Z,3.60
2023-12-23T09:36:53.966Z,3.60
2023-12-23T09:39:21.788Z,3.50
2023-12-23T09:41:49.763Z,3.50
2023-12-23T09:44:17.614Z,3.50
2023-12-23T09:46:45.766Z,3.50
2023-12-23T09:49:13.841Z,3.60
2023-12-23T09:51:42.555Z,3.60
2023-12-23T09:54:16.979Z,3.60
2023-12-23T09:56:44.911Z,3.60
2023-12-23T09:59:12.728Z,3.60
2023-12-23T10:01:40.496Z,3.60
2023-12-23T10:04:08.225Z,3.60
2023-12-23T10:06:36.172Z,3.50
2023-12-23T10:09:17.939Z,3.60
2023-12-23T10:11:48.680Z,3.60
2023-12-23T10:14:16.456Z,3.60
2023-12-23T10:16:46.217Z,3.70
2023-12-23T10:19:15.657Z,3.70
2023-12-23T10:21:44.723Z,3.70
2023-12-23T10:24:12.605Z,3.70
2023-12-23T10:26:41.878Z,3.70
2023-12-23T10:29:11.328Z,3.70
2023-12-23T10:31:40.624Z,3.70
2023-12-23T10:34:11.948Z,3.60
2023-12-23T10:36:43.586Z,3.70
2023-12-23T10:39:22.737Z,3.70
2023-12-23T10:42:05.245Z,3.70
2023-12-23T10:44:34.344Z,3.70
2023-12-23T10:47:03.808Z,3.70
2023-12-23T10:49:32.134Z,3.70
2023-12-23T10:52:04.543Z,3.80
2023-12-23T10:54:36.329Z,3.70
2023-12-23T10:57:05.920Z,3.80
2023-12-23T10:59:33.690Z,3.80
2023-12-23T11:02:13.703Z,3.80
2023-12-23T11:04:48.605Z,3.80
2023-12-23T11:07:18.774Z,3.80
2023-12-23T11:09:52.888Z,3.70
2023-12-23T11:12:20.763Z,3.80
2023-12-23T11:14:48.628Z,3.70
2023-12-23T11:17:29.762Z,3.70
2023-12-23T11:20:02.813Z,3.70
2023-12-23T11:22:38.651Z,3.70
2023-12-23T11:25:40.118Z,3.60
2023-12-23T11:28:14.067Z,3.60
2023-12-23T11:30:55.767Z,3.60
2023-12-23T11:33:25.730Z,3.60
2023-12-23T11:35:59.755Z,3.60
2023-12-23T11:38:56.955Z,3.60
2023-12-23T11:41:25.275Z,3.60
2023-12-23T11:43:54.168Z,3.60
2023-12-23T11:46:24.438Z,3.50
2023-12-23T11:48:52.551Z,3.50
2023-12-23T11:51:21.190Z,3.50
2023-12-23T11:53:49.266Z,3.40
2023-12-23T11:56:17.249Z,3.50
2023-12-23T11:58:45.438Z,3.40
2023-12-23T12:01:13.262Z,3.40
2023-12-23T12:03:41.210Z,3.30
2023-12-23T12:06:09.836Z,3.40
2023-12-23T12:08:38.008Z,3.40
2023-12-23T12:11:06.467Z,3.50
2023-12-23T12:13:47.606Z,3.50
2023-12-23T12:16:18.733Z,3.50
2023-12-23T12:18:49.191Z,3.50
2023-12-23T12:21:17.035Z,3.50
2023-12-23T12:23:44.991Z,3.50
2023-12-23T12:26:12.858Z,3.60
2023-12-23T12:28:40.740Z,3.60
2023-12-23T12:31:14.380Z,3.60
2023-12-23T12:33:43.732Z,3.60
2023-12-23T12:36:15.409Z,3.60
2023-12-23T12:38:45.715Z,3.60
2023-12-23T12:41:18.760Z,3.60
2023-12-23T12:43:47.053Z,3.70
2023-12-23T12:46:16.509Z,3.60
2023-12-23T12:48:46.191Z,3.60
2023-12-23T12:51:16.990Z,3.70
2023-12-23T12:53:47.322Z,3.70
2023-12-23T12:56:24.311Z,3.60
2023-12-23T12:59:00.452Z,3.70
2023-12-23T13:01:28.451Z,3.70
2023-12-23T13:03:59.243Z,3.70
2023-12-23T13:06:27.442Z,3.70
2023-12-23T13:08:57.328Z,3.70
2023-12-23T13:11:25.092Z,3.80
2023-12-23T13:13:53.132Z,3.80
2023-12-23T13:16:21.008Z,3.70
2023-12-23T13:18:56.418Z,3.70
2023-12-23T13:24:41.638Z,3.70
2023-12-23T13:27:09.391Z,3.70
2023-12-23T13:29:37.456Z,3.60
2023-12-23T13:32:05.814Z,3.60
2023-12-23T13:34:33.611Z,3.60
2023-12-23T13:37:01.484Z,3.60
2023-12-23T13:39:29.313Z,3.50
2023-12-23T13:41:57.017Z,3.50
2023-12-23T13:44:24.819Z,3.40
2023-12-23T13:46:55.302Z,3.40
2023-12-23T13:49:23.406Z,3.40
2023-12-23T13:51:51.411Z,3.40
2023-12-23T13:54:19.326Z,3.40
2023-12-23T13:56:51.511Z,3.40
2023-12-23T13:59:19.404Z,3.30
2023-12-23T14:01:47.126Z,3.40
2023-12-23T14:04:14.861Z,3.30
2023-12-23T14:06:42.741Z,3.30
2023-12-23T14:09:10.508Z,3.30
2023-12-23T14:11:38.239Z,3.30
2023-12-23T14:14:06.286Z,3.30
2023-12-23T14:16:34.197Z,3.30
2023-12-23T14:19:02.035Z,3.30
2023-12-23T14:21:30.015Z,3.30
2023-12-23T14:24:05.008Z,3.30
2023-12-23T14:26:32.882Z,3.20
2023-12-23T14:29:00.747Z,3.30
2023-12-23T14:31:29.748Z,3.30
2023-12-23T14:33:57.730Z,3.20
2023-12-23T14:36:27.379Z,3.20
2023-12-23T14:38:55.035Z,3.30
2023-12-23T14:41:23.410Z,3.20
2023-12-23T14:43:51.231Z,3.20
2023-12-23T14:46:19.869Z,3.20
2023-12-23T14:48:48.236Z,3.20
2023-12-23T14:51:21.667Z,3.10
2023-12-23T14:53:49.459Z,3.00
2023-12-23T14:56:17.145Z,3.10
2023-12-23T14:58:44.923Z,3.10
2023-12-23T15:01:12.613Z,3.10
2023-12-23T15:03:40.345Z,3.10
2023-12-23T15:06:09.882Z,3.10
2023-12-23T15:08:37.885Z,3.00
2023-12-23T15:11:05.784Z,3.00
2023-12-23T15:13:38.641Z,3.10
2023-12-23T15:16:09.118Z,3.00
2023-12-23T15:18:37.187Z,2.90
2023-12-23T15:21:06.371Z,3.00
2023-12-23T15:23:35.280Z,3.00
2023-12-23T15:26:03.332Z,3.00
2023-12-23T15:28:31.034Z,3.00
2023-12-23T15:30:58.797Z,3.00
2023-12-23T15:33:26.908Z,3.00
2023-12-23T15:35:56.225Z,3.00
2023-12-23T15:38:23.962Z,2.90
2023-12-23T15:40:51.739Z,2.90
2023-12-23T15:43:19.415Z,2.90
2023-12-23T15:45:47.164Z,2.80
2023-12-23T15:48:14.928Z,3.00
2023-12-23T15:50:45.298Z,3.00
2023-12-23T15:53:14.657Z,3.10
2023-12-23T15:55:42.806Z,3.00
2023-12-23T15:58:10.573Z,3.00
2023-12-23T16:00:38.598Z,3.10
2023-12-23T16:03:07.852Z,3.10
2023-12-23T16:05:35.718Z,3.00
2023-12-23T16:08:05.043Z,3.00
2023-12-23T16:10:32.997Z,3.00
2023-12-23T16:13:00.742Z,3.10
2023-12-23T16:15:28.505Z,3.00
2023-12-23T16:17:56.381Z,3.10
2023-12-23T16:20:24.400Z,3.00
2023-12-23T16:22:53.343Z,3.00
2023-12-23T16:25:21.263Z,3.00
2023-12-23T16:27:49.358Z,3.00
2023-12-23T16:30:17.536Z,2.90
2023-12-23T16:32:45.589Z,3.20
2023-12-23T16:35:13.641Z,3.20
2023-12-23T16:37:42.769Z,3.30
2023-12-23T16:40:10.984Z,3.70
2023-12-23T16:42:39.339Z,4.00
2023-12-23T16:45:07.893Z,3.90
2023-12-23T16:47:35.967Z,3.90
2023-12-23T16:50:06.501Z,3.90
2023-12-23T16:52:34.408Z,3.80
2023-12-23T16:55:02.270Z,3.80
2023-12-23T16:57:30.034Z,4.00
2023-12-23T16:59:57.920Z,3.90
2023-12-23T17:02:25.771Z,4.00
2023-12-23T17:04:53.803Z,4.00
2023-12-23T17:07:21.926Z,4.10
2023-12-23T17:09:49.698Z,4.30
2023-12-23T17:12:17.448Z,4.30
2023-12-23T17:14:47.733Z,4.40
2023-12-23T17:17:18.176Z,5.20
2023-12-23T17:20:26.313Z,5.00
2023-12-23T17:22:57.501Z,4.90
2023-12-23T17:25:25.948Z,4.90
2023-12-23T17:27:53.736Z,4.90
2023-12-23T17:30:21.632Z,5.20
2023-12-23T17:32:49.802Z,5.40
2023-12-23T17:35:17.667Z,5.60
2023-12-23T17:37:45.473Z,5.30
2023-12-23T17:40:13.195Z,5.40
2023-12-23T17:42:40.983Z,5.20
2023-12-23T17:45:09.035Z,5.00
2023-12-23T17:47:36.999Z,5.30
2023-12-23T17:50:05.626Z,5.40
2023-12-23T17:52:33.454Z,5.70
2023-12-23T17:55:01.237Z,5.50
2023-12-23T17:57:31.468Z,5.50
2023-12-23T17:59:59.181Z,5.40
2023-12-23T18:02:30.037Z,5.30
2023-12-23T18:04:58.047Z,5.50
2023-12-23T18:07:26.176Z,5.70
2023-12-23T18:09:54.026Z,5.70
2023-12-23T18:12:21.865Z,5.50
2023-12-23T18:14:49.543Z,5.40
2023-12-23T18:17:17.270Z,5.60
2023-12-23T18:19:45.011Z,5.60
2023-12-23T18:22:12.883Z,5.60
2023-12-23T18:24:41.114Z,5.60
2023-12-23T18:27:09.859Z,5.30
2023-12-23T18:29:37.703Z,5.10
2023-12-23T18:32:05.812Z,5.10
2023-12-23T18:34:34.663Z,5.20
2023-12-23T18:37:02.586Z,5.10
2023-12-23T18:39:30.329Z,5.20
2023-12-23T18:41:58.065Z,5.00
2023-12-23T18:44:25.829Z,4.90
2023-12-23T18:46:55.188Z,4.80
2023-12-23T18:49:23.826Z,4.70
2023-12-23T18:51:51.678Z,4.70
2023-12-23T18:54:19.439Z,4.80
2023-12-23T18:56:47.208Z,4.90
2023-12-23T18:59:17.040Z,4.80
2023-12-23T19:01:45.009Z,4.90
2023-12-23T19:04:13.120Z,4.80
2023-12-23T19:06:41.356Z,4.70
2023-12-23T19:09:09.206Z,4.80
2023-12-23T19:11:36.985Z,4.70
2023-12-23T19:14:04.844Z,4.60
2023-12-23T19:16:33.833Z,4.40
2023-12-23T19:19:01.617Z,4.50
2023-12-23T19:21:29.372Z,4.60
2023-12-23T19:23:57.040Z,4.60
2023-12-23T19:26:29.207Z,4.70
2023-12-23T19:28:58.969Z,4.70
2023-12-23T19:31:29.027Z,4.70
2023-12-23T19:33:59.006Z,4.70
2023-12-23T19:36:26.817Z,5.10
2023-12-23T19:38:55.899Z,5.00
2023-12-23T19:41:23.737Z,5.20
2023-12-23T19:43:51.727Z,5.20
2023-12-23T19:46:19.544Z,5.30
2023-12-23T19:48:47.423Z,5.30
2023-12-23T19:51:16.622Z,5.10
2023-12-23T19:53:44.297Z,4.90
2023-12-23T19:56:12.842Z,4.90
2023-12-23T19:58:40.732Z,4.90
2023-12-23T20:01:09.310Z,5.10
2023-12-23T20:03:42.957Z,5.00
2023-12-23T20:06:12.568Z,5.00
2023-12-23T20:08:42.805Z,5.30
2023-12-23T20:11:11.629Z,5.10
2023-12-23T20:13:39.772Z,5.00
2023-12-23T20:16:07.561Z,5.30
2023-12-23T20:18:36.272Z,5.40
2023-12-23T20:21:04.316Z,5.50
2023-12-23T20:23:32.177Z,5.50
2023-12-23T20:25:59.941Z,5.50
2023-12-23T20:28:27.690Z,5.40
2023-12-23T20:30:55.551Z,5.30
2023-12-23T20:33:23.377Z,5.20
2023-12-23T20:35:51.282Z,5.10
2023-12-23T20:38:19.158Z,5.00
2023-12-23T20:40:47.138Z,4.90
2023-12-23T20:43:15.492Z,5.10
2023-12-23T20:45:43.622Z,5.10
2023-12-23T20:48:11.387Z,5.20
2023-12-23T20:50:39.755Z,5.40
2023-12-23T20:53:07.532Z,5.40
2023-12-23T20:55:35.470Z,5.50
2023-12-23T20:58:03.215Z,5.60
2023-12-23T21:00:30.969Z,5.70
2023-12-23T21:02:59.461Z,6.00
2023-12-23T21:05:27.306Z,5.60
2023-12-23T21:07:55.459Z,5.70
2023-12-23T21:10:23.463Z,5.90
2023-12-23T21:12:51.577Z,6.00
2023-12-23T21:15:19.555Z,5.90
2023-12-23T21:17:47.626Z,5.80
2023-12-23T21:20:15.462Z,5.60
2023-12-23T21:22:43.209Z,5.70
2023-12-23T21:25:11.028Z,5.80
2023-12-23T21:27:38.788Z,6.00
2023-12-23T21:30:07.203Z,6.00
2023-12-23T21:32:35.211Z,6.00
2023-12-23T21:35:03.238Z,6.00
2023-12-23T21:37:31.118Z,6.00
2023-12-23T21:40:02.219Z,6.10
2023-12-23T21:42:29.920Z,6.10
2023-12-23T21:44:57.624Z,6.20
2023-12-23T21:47:25.534Z,6.00
2023-12-23T21:49:53.448Z,5.80
2023-12-23T21:52:22.632Z,6.10
2023-12-23T21:54:50.853Z,6.30
2023-12-23T21:57:20.612Z,6.20
2023-12-23T21:59:48.526Z,6.10
2023-12-23T22:02:16.365Z,6.40
2023-12-23T22:04:44.158Z,6.40
2023-12-23T22:07:11.976Z,6.50
2023-12-23T22:09:39.670Z,6.40
2023-12-23T22:12:07.863Z,6.50
2023-12-23T22:14:35.795Z,6.10
2023-12-23T22:17:03.639Z,6.50
2023-12-23T22:19:31.512Z,6.50
2023-12-23T22:21:59.371Z,6.20
2023-12-23T22:24:27.167Z,6.10
2023-12-23T22:26:54.820Z,6.00
2023-12-23T22:29:22.655Z,5.80
2023-12-23T22:31:50.477Z,6.00
2023-12-23T22:34:18.451Z,5.80
2023-12-23T22:36:46.324Z,6.10
2023-12-23T22:39:14.151Z,6.00
2023-12-23T22:41:41.922Z,6.00
2023-12-23T22:44:10.035Z,5.80
2023-12-23T22:46:40.131Z,5.90
2023-12-23T22:49:08.301Z,6.00
2023-12-23T22:51:36.592Z,6.10
2023-12-23T22:54:06.332Z,6.20
2023-12-23T22:56:40.064Z,6.10
2023-12-23T22:59:08.270Z,6.20
2023-12-23T23:01:36.075Z,6.30
2023-12-23T23:04:03.808Z,6.30
2023-12-23T23:06:32.017Z,6.50
2023-12-23T23:08:59.860Z,6.30
2023-12-23T23:11:27.980Z,6.30
2023-12-23T23:13:55.801Z,5.90
2023-12-23T23:16:23.643Z,5.90
2023-12-23T23:18:51.768Z,5.70
2023-12-23T23:21:21.499Z,5.60
2023-12-23T23:23:50.259Z,5.20
2023-12-23T23:26:18.009Z,4.90
2023-12-23T23:28:45.885Z,4.80
2023-12-23T23:31:13.895Z,4.60
2023-12-23T23:33:41.989Z,4.50
2023-12-23T23:36:15.841Z,4.60
2023-12-23T23:38:43.841Z,4.60
2023-12-23T23:41:14.740Z,4.70
2023-12-23T23:43:42.601Z,5.20
2023-12-23T23:46:18.361Z,5.20
2023-12-23T23:48:46.196Z,5.00
2023-12-23T23:51:21.522Z,4.90
2023-12-23T23:53:49.565Z,5.00
2023-12-23T23:56:20.395Z,5.30
2023-12-23T23:58:49.458Z,5.10
